Time;durP1;ratioP1;P1;durP2;ratioP2;P2;SDS_P1;SDS_P2;PMS_P1;PMS_P2;Temp;Humidity;BMP_temperature;BMP_pressure;BME280_temperature;BME280_humidity;BME280_pressure;Samples;Min_cycle;Max_cycle;Signal;HPM_P1;HPM_P2
2022/05/27 00:00:05;;;;;;;;;3.00;3.00;;;;;21.31;41.42;98945.63;6281033;27;97626;-65
2022/05/27 00:03:08;;;;;;;;;2.00;2.00;;;;;21.28;41.57;98941.56;6288286;27;97860;-66
2022/05/27 00:06:12;;;;;;;;;2.00;2.00;;;;;21.11;41.29;98925.53;6271274;27;96829;-64
2022/05/27 00:09:15;;;;;;;;;2.00;2.00;;;;;21.16;41.38;98943.88;6288580;27;96723;-65
2022/05/27 00:12:20;;;;;;;;;2.67;2.00;;;;;21.16;41.70;98947.44;6262535;27;96992;-64
2022/05/27 00:15:24;;;;;;;;;2.00;2.00;;;;;21.09;41.71;98940.63;6283867;27;96432;-65
2022/05/27 00:18:27;;;;;;;;;2.00;2.00;;;;;21.10;41.92;98939.53;6288836;27;97590;-65
2022/05/27 00:21:31;;;;;;;;;3.00;2.00;;;;;21.01;41.92;98933.84;6286606;27;97411;-66
2022/05/27 00:24:36;;;;;;;;;2.00;2.00;;;;;21.01;42.00;98936.56;6287416;27;97381;-65
2022/05/27 00:27:40;;;;;;;;;3.00;3.00;;;;;20.96;42.14;98933.09;6289048;27;98393;-67
2022/05/27 00:30:44;;;;;;;;;3.00;3.00;;;;;20.97;42.00;98929.22;6288160;27;96507;-66
2022/05/27 00:33:48;;;;;;;;;3.00;2.00;;;;;20.92;41.79;98927.34;6288483;27;97552;-65
2022/05/27 00:36:51;;;;;;;;;2.00;2.00;;;;;20.94;41.73;98921.59;6252186;27;97577;-66
2022/05/27 00:39:56;;;;;;;;;2.00;1.00;;;;;20.90;42.13;98917.78;6246198;27;96735;-65
2022/05/27 00:43:00;;;;;;;;;2.00;2.00;;;;;20.91;41.84;98914.78;6266522;27;97118;-64
2022/05/27 00:46:07;;;;;;;;;3.00;3.00;;;;;20.97;41.81;98915.53;6288544;27;97511;-65
2022/05/27 00:49:15;;;;;;;;;3.00;2.00;;;;;20.94;41.65;98916.09;6262809;27;97439;-64
2022/05/27 00:52:21;;;;;;;;;2.00;2.00;;;;;20.89;41.86;98911.50;6269620;27;96734;-64
2022/05/27 00:55:30;;;;;;;;;2.80;2.00;;;;;20.92;41.79;98912.81;6288754;27;96690;-65
2022/05/27 00:58:41;;;;;;;;;2.00;2.00;;;;;20.99;41.84;98913.31;6270462;27;97809;-65
2022/05/27 01:01:44;;;;;;;;;2.00;2.00;;;;;21.01;41.52;98914.66;6269936;27;97396;-66
2022/05/27 01:04:50;;;;;;;;;2.00;1.75;;;;;21.04;41.70;98908.59;6287384;27;97315;-67
2022/05/27 01:07:59;;;;;;;;;2.00;2.00;;;;;21.06;41.22;98913.81;6263541;27;96501;-67
2022/05/27 01:11:14;;;;;;;;;3.00;2.00;;;;;20.91;41.69;98897.50;6270375;27;96430;-65
2022/05/27 01:14:27;;;;;;;;;2.00;2.00;;;;;21.07;41.30;98918.16;6268618;27;98251;-66
2022/05/27 01:17:41;;;;;;;;;2.40;2.40;;;;;21.09;41.48;98915.97;6288092;27;97356;-66
2022/05/27 01:20:51;;;;;;;;;2.00;1.00;;;;;21.00;41.51;98910.28;6259696;27;97940;-65
2022/05/27 01:24:17;;;;;;;;;2.00;2.00;;;;;20.95;41.60;98912.25;6268262;27;97849;-65
2022/05/27 01:27:46;;;;;;;;;2.00;2.00;;;;;20.93;41.60;98896.09;6269671;27;97012;-66
2022/05/27 01:30:58;;;;;;;;;3.20;2.00;;;;;21.00;41.46;98899.34;6288299;27;97465;-65
2022/05/27 01:34:11;;;;;;;;;3.00;3.00;;;;;20.99;41.70;98899.63;6269269;27;97143;-65
2022/05/27 01:37:23;;;;;;;;;2.00;2.00;;;;;21.05;41.56;98891.06;6269598;27;97082;-65
2022/05/27 01:40:32;;;;;;;;;2.00;2.00;;;;;21.10;41.18;98893.75;6263447;27;98381;-65
2022/05/27 01:43:41;;;;;;;;;3.80;2.40;;;;;21.05;41.44;98898.47;6285985;27;96674;-65
2022/05/27 01:46:47;;;;;;;;;2.00;2.00;;;;;21.11;41.00;98891.84;6265932;27;97823;-65
2022/05/27 01:50:02;;;;;;;;;2.00;2.00;;;;;21.06;41.34;98887.19;6261705;27;96479;-67
2022/05/27 01:53:13;;;;;;;;;2.00;2.00;;;;;21.02;41.05;98886.13;6257755;27;96689;-64
2022/05/27 01:56:21;;;;;;;;;2.00;2.00;;;;;21.03;41.21;98885.03;6267945;27;97920;-64
2022/05/27 01:59:31;;;;;;;;;2.20;2.20;;;;;21.06;41.01;98881.72;6269149;27;97857;-65
2022/05/27 02:02:40;;;;;;;;;2.00;2.00;;;;;21.08;41.19;98882.25;6266755;27;96785;-65
2022/05/27 02:05:49;;;;;;;;;2.50;2.50;;;;;21.08;41.50;98875.94;6290779;27;97421;-66
2022/05/27 02:08:58;;;;;;;;;3.00;2.00;;;;;21.06;41.26;98864.47;6293068;27;96901;-65
2022/05/27 02:12:06;;;;;;;;;3.00;2.00;;;;;21.02;41.05;98866.94;6292176;27;96676;-65
2022/05/27 02:15:15;;;;;;;;;2.00;2.00;;;;;21.05;41.06;98855.44;6291476;27;97874;-66
2022/05/27 02:18:24;;;;;;;;;2.80;2.00;;;;;21.08;41.10;98873.19;6273262;27;98260;-65
2022/05/27 02:21:31;;;;;;;;;1.00;1.00;;;;;21.07;41.07;98866.09;6256287;27;98338;-65
2022/05/27 02:24:41;;;;;;;;;1.20;1.20;;;;;21.03;41.16;98865.84;6290032;27;97543;-66
2022/05/27 02:27:52;;;;;;;;;2.00;2.00;;;;;21.02;41.38;98860.66;6254974;27;97098;-66
2022/05/27 02:31:00;;;;;;;;;2.00;1.00;;;;;21.09;41.32;98859.22;6257328;27;97728;-65
2022/05/27 02:37:32;;;;;;;;;2.00;2.00;;;;;21.22;40.65;98857.72;6266843;27;96831;-65
2022/05/27 02:40:43;;;;;;;;;1.00;1.00;;;;;21.16;41.15;98848.72;6283814;27;97432;-64
2022/05/27 02:44:01;;;;;;;;;2.00;2.00;;;;;21.28;40.93;98853.81;6249023;27;97825;-65
2022/05/27 02:47:09;;;;;;;;;2.00;2.00;;;;;21.32;40.75;98848.56;6290995;27;97818;-65
2022/05/27 02:50:22;;;;;;;;;2.00;2.00;;;;;21.31;40.62;98841.44;6291935;27;96461;-65
2022/05/27 02:53:33;;;;;;;;;2.00;2.00;;;;;21.31;40.61;98841.44;6290726;27;96473;-65
2022/05/27 02:56:43;;;;;;;;;2.00;2.00;;;;;21.29;40.46;98844.50;6290542;27;96844;-64
2022/05/27 02:59:47;;;;;;;;;1.20;1.20;;;;;21.30;40.45;98837.91;6290516;27;96495;-66
2022/05/27 03:02:51;;;;;;;;;2.00;1.00;;;;;21.29;40.87;98839.00;6269713;27;97421;-67
2022/05/27 03:06:15;;;;;;;;;1.00;1.00;;;;;21.25;41.03;98831.66;6290569;27;97774;-66
2022/05/27 03:09:24;;;;;;;;;2.00;2.00;;;;;21.24;40.95;98841.81;6285842;27;96665;-66
2022/05/27 03:12:38;;;;;;;;;2.00;2.00;;;;;21.24;41.18;98836.31;6283719;27;97398;-66
2022/05/27 03:16:00;;;;;;;;;1.00;1.00;;;;;21.20;41.09;98834.47;6269672;27;98581;-65
2022/05/27 03:19:24;;;;;;;;;1.00;1.00;;;;;21.14;41.23;98834.53;6285601;27;97892;-66
2022/05/27 03:22:44;;;;;;;;;2.00;2.00;;;;;21.15;41.16;98829.84;6264928;27;96804;-67
2022/05/27 03:25:55;;;;;;;;;1.40;1.40;;;;;21.02;41.32;98825.84;6269309;27;96585;-64
2022/05/27 03:29:17;;;;;;;;;1.00;1.00;;;;;21.05;40.95;98829.94;6266803;27;97389;-65
2022/05/27 03:32:36;;;;;;;;;1.00;1.00;;;;;21.02;40.79;98833.25;6260006;27;96906;-64
2022/05/27 03:35:48;;;;;;;;;2.00;2.00;;;;;20.75;41.04;98801.75;6264900;27;97039;-65
2022/05/27 03:39:00;;;;;;;;;2.00;2.00;;;;;20.93;41.22;98824.03;6290333;27;97509;-65
2022/05/27 03:42:08;;;;;;;;;1.00;1.00;;;;;21.00;41.36;98821.78;6288058;27;97508;-65
2022/05/27 03:45:15;;;;;;;;;2.00;1.40;;;;;20.97;41.33;98817.66;6268429;27;99466;-65
2022/05/27 03:48:21;;;;;;;;;2.00;1.00;;;;;20.94;41.30;98815.53;6285774;27;98490;-64
2022/05/27 03:51:28;;;;;;;;;1.40;1.40;;;;;21.00;41.34;98819.03;6282178;27;97611;-64
2022/05/27 03:54:33;;;;;;;;;1.00;1.00;;;;;21.11;41.08;98812.34;6263231;27;97781;-65
2022/05/27 03:57:36;;;;;;;;;1.00;1.00;;;;;21.06;41.20;98818.66;6243987;27;96933;-66
2022/05/27 04:00:40;;;;;;;;;2.00;2.00;;;;;21.11;41.38;98804.09;6280776;27;96651;-65
2022/05/27 04:03:43;;;;;;;;;1.00;1.00;;;;;21.19;41.17;98814.44;6282093;27;96478;-64
2022/05/27 04:06:47;;;;;;;;;2.00;1.00;;;;;21.29;41.07;98805.28;6263087;27;97070;-65
2022/05/27 04:09:52;;;;;;;;;2.00;1.60;;;;;21.42;40.87;98804.56;6260002;27;97844;-64
2022/05/27 04:12:55;;;;;;;;;3.00;2.00;;;;;21.48;40.98;98803.38;6269354;27;98104;-65
2022/05/27 04:15:58;;;;;;;;;2.60;1.60;;;;;21.50;41.00;98793.72;6253109;27;96695;-64
2022/05/27 04:19:02;;;;;;;;;1.00;1.00;;;;;21.58;40.55;98801.31;6287549;27;97490;-65
2022/05/27 04:22:05;;;;;;;;;1.00;1.00;;;;;21.69;40.73;98790.22;6288050;27;96709;-64
2022/05/27 04:25:11;;;;;;;;;1.00;1.00;;;;;21.72;40.60;98790.44;6282610;27;97492;-67
2022/05/27 04:28:14;;;;;;;;;1.00;1.00;;;;;21.90;40.18;98791.53;6284602;27;97499;-68
2022/05/27 04:31:18;;;;;;;;;1.00;1.00;;;;;22.08;40.14;98792.66;6268546;27;97204;-67
2022/05/27 04:34:23;;;;;;;;;1.60;1.60;;;;;22.15;40.00;98798.56;6286851;27;97467;-66
2022/05/27 04:37:26;;;;;;;;;1.00;1.00;;;;;22.12;40.00;98786.28;6287031;27;97039;-66
2022/05/27 04:40:32;;;;;;;;;1.00;1.00;;;;;22.25;40.10;98787.44;6267322;27;97749;-67
2022/05/27 04:43:35;;;;;;;;;1.00;1.00;;;;;22.32;39.72;98790.63;6287822;27;96864;-67
2022/05/27 04:46:39;;;;;;;;;1.20;1.00;;;;;22.41;39.99;98795.13;6266880;27;96518;-67
2022/05/27 04:49:58;;;;;;;;;2.00;2.00;;;;;22.46;39.18;98789.53;6271891;27;97373;-66
2022/05/27 04:53:02;;;;;;;;;1.00;1.00;;;;;22.65;39.06;98789.47;6234375;27;97704;-65
2022/05/27 04:56:08;;;;;;;;;2.60;2.00;;;;;22.70;38.83;98772.06;6286928;27;96664;-65
2022/05/27 04:59:12;;;;;;;;;1.00;1.00;;;;;22.66;38.60;98776.56;6287711;27;98468;-67
2022/05/27 05:02:15;;;;;;;;;0.00;0.00;;;;;22.61;38.72;98773.91;6286284;27;98028;-66
2022/05/27 05:05:21;;;;;;;;;2.00;1.00;;;;;22.77;38.90;98769.78;6250882;27;98419;-66
2022/05/27 05:08:33;;;;;;;;;1.00;1.00;;;;;22.81;38.83;98770.81;6286504;27;97621;-67
2022/05/27 05:11:38;;;;;;;;;2.00;2.00;;;;;22.81;38.47;98768.88;6285821;27;97467;-65
2022/05/27 05:14:42;;;;;;;;;2.00;2.00;;;;;22.88;38.64;98765.69;6288672;27;96451;-66
2022/05/27 05:17:46;;;;;;;;;2.00;2.00;;;;;22.74;38.56;98762.13;6266054;27;97448;-66
2022/05/27 05:20:50;;;;;;;;;2.00;1.40;;;;;22.86;38.74;98759.72;6286624;27;96591;-66
2022/05/27 05:23:54;;;;;;;;;2.00;1.00;;;;;23.00;38.29;98762.44;6269848;27;96652;-65
2022/05/27 05:26:58;;;;;;;;;1.00;1.00;;;;;22.94;38.63;98759.00;6251028;27;96965;-67
2022/05/27 05:30:04;;;;;;;;;1.80;1.80;;;;;23.06;38.47;98759.31;6286456;27;98063;-66
2022/05/27 05:33:07;;;;;;;;;1.75;1.75;;;;;23.15;38.36;98751.97;6288387;27;97518;-66
2022/05/27 05:36:10;;;;;;;;;1.00;1.00;;;;;23.18;37.98;98751.34;6268789;27;96918;-67
2022/05/27 05:39:13;;;;;;;;;2.00;2.00;;;;;23.05;38.75;98745.84;6267711;27;96851;-65
2022/05/27 05:42:19;;;;;;;;;1.00;1.00;;;;;23.00;37.67;98745.94;6261874;27;96657;-67
2022/05/27 05:45:22;;;;;;;;;1.00;1.00;;;;;23.00;38.22;98751.44;6244686;27;96805;-65
2022/05/27 05:48:25;;;;;;;;;1.00;1.00;;;;;23.03;38.05;98743.41;6257023;27;96943;-65
2022/05/27 05:51:29;;;;;;;;;1.40;1.00;;;;;23.03;37.87;98737.09;6252310;27;99475;-65
2022/05/27 05:54:32;;;;;;;;;1.00;1.00;;;;;23.06;37.98;98734.56;6269566;27;96598;-65
2022/05/27 05:57:42;;;;;;;;;1.00;0.60;;;;;23.18;37.83;98734.84;6269845;27;97226;-67
2022/05/27 06:00:46;;;;;;;;;2.00;1.00;;;;;23.33;37.58;98734.50;6288126;27;97429;-66
2022/05/27 06:03:50;;;;;;;;;1.00;1.00;;;;;23.47;37.48;98729.00;6284490;27;96529;-66
2022/05/27 06:06:56;;;;;;;;;1.00;1.00;;;;;23.53;37.51;98714.00;6269381;27;96760;-67
2022/05/27 06:10:00;;;;;;;;;1.00;1.00;;;;;23.67;37.26;98730.47;6269457;27;96705;-67
2022/05/27 06:13:05;;;;;;;;;1.00;1.00;;;;;23.72;37.07;98722.91;6252426;27;96612;-67
2022/05/27 06:16:09;;;;;;;;;1.00;1.00;;;;;23.75;36.80;98714.00;6287563;27;96368;-66
2022/05/27 06:19:13;;;;;;;;;1.00;1.00;;;;;23.82;36.68;98723.78;6252511;27;98918;-66
2022/05/27 06:22:16;;;;;;;;;2.00;1.00;;;;;23.93;36.47;98714.97;6268487;27;97811;-66
2022/05/27 06:25:20;;;;;;;;;1.00;1.00;;;;;24.09;36.44;98712.66;6287754;27;96337;-65
2022/05/27 06:35:10;;;;;;;;;2.00;1.40;;;;;24.32;35.30;98711.53;6248889;27;97452;-67
2022/05/27 06:38:13;;;;;;;;;2.00;2.00;;;;;24.35;35.16;98704.56;6286579;27;97518;-65
2022/05/27 06:41:17;;;;;;;;;1.00;1.00;;;;;24.48;35.38;98707.22;6286695;27;96588;-65
2022/05/27 06:44:22;;;;;;;;;1.00;1.00;;;;;24.76;34.53;98702.31;6287217;27;97411;-65
2022/05/27 06:47:26;;;;;;;;;1.00;1.00;;;;;24.91;34.86;98690.91;6287711;27;96834;-65
2022/05/27 06:50:31;;;;;;;;;1.60;1.00;;;;;25.04;34.42;98694.66;6288733;27;96557;-66
2022/05/27 06:53:34;;;;;;;;;1.60;1.00;;;;;25.12;34.49;98679.28;6273100;27;98542;-65
2022/05/27 06:56:40;;;;;;;;;2.00;1.00;;;;;25.06;34.42;98683.31;6291481;27;96431;-66
2022/05/27 06:59:45;;;;;;;;;1.00;1.00;;;;;24.96;34.51;98676.97;6272285;27;97244;-66
2022/05/27 07:02:48;;;;;;;;;0.75;0.25;;;;;25.25;33.95;98679.13;6255960;27;97849;-65
2022/05/27 07:05:52;;;;;;;;;1.00;1.00;;;;;25.39;33.98;98670.69;6291291;27;97519;-64
2022/05/27 07:08:55;;;;;;;;;1.00;1.00;;;;;25.44;34.03;98671.34;6272001;27;96836;-65
2022/05/27 07:11:58;;;;;;;;;1.67;1.00;;;;;25.60;33.67;98676.41;6272031;27;99516;-66
2022/05/27 07:15:04;;;;;;;;;1.00;1.00;;;;;25.56;33.04;98669.91;6290564;27;98158;-66
2022/05/27 07:18:09;;;;;;;;;1.00;1.00;;;;;25.51;32.48;98657.03;6270569;27;99432;-65
2022/05/27 07:21:13;;;;;;;;;1.00;1.00;;;;;25.56;32.48;98664.41;6291177;27;97250;-66
2022/05/27 07:24:18;;;;;;;;;1.00;1.00;;;;;25.63;32.52;98629.63;6272021;27;96538;-65
2022/05/27 07:27:22;;;;;;;;;1.00;1.00;;;;;25.69;32.68;98633.84;6291650;27;96342;-66
2022/05/27 07:30:26;;;;;;;;;1.20;1.20;;;;;26.13;32.32;98640.91;6290607;27;97414;-66
2022/05/27 07:33:30;;;;;;;;;1.00;1.00;;;;;26.27;31.75;98637.97;6290135;27;97462;-66
2022/05/27 07:36:34;;;;;;;;;0.80;0.80;;;;;26.30;31.74;98635.34;6271170;27;98380;-67
2022/05/27 07:39:38;;;;;;;;;1.33;0.33;;;;;26.38;31.96;98639.22;6272323;27;97423;-67
2022/05/27 07:42:42;;;;;;;;;1.00;1.00;;;;;26.42;31.84;98639.38;6271231;27;96690;-66
2022/05/27 07:45:50;;;;;;;;;2.25;1.75;;;;;26.44;31.57;98632.34;6290745;27;96477;-65
2022/05/27 07:48:55;;;;;;;;;1.00;1.00;;;;;26.63;31.34;98629.19;6290168;27;96952;-67
2022/05/27 07:52:18;;;;;;;;;2.00;2.00;;;;;26.79;30.87;98621.94;6290354;27;97074;-66
2022/05/27 07:55:21;;;;;;;;;1.00;1.00;;;;;26.90;30.67;98633.47;6290333;27;96417;-66
2022/05/27 07:58:25;;;;;;;;;1.00;1.00;;;;;26.57;30.33;98619.47;6290354;27;96478;-66
2022/05/27 08:01:30;;;;;;;;;3.00;1.60;;;;;26.53;30.45;98629.56;6261580;27;96718;-65
2022/05/27 08:04:33;;;;;;;;;1.50;1.50;;;;;26.53;30.66;98611.03;6264690;27;96618;-66
2022/05/27 08:07:36;;;;;;;;;2.00;2.00;;;;;26.59;30.92;98595.84;6263640;27;97386;-66
2022/05/27 08:10:42;;;;;;;;;3.00;2.00;;;;;26.65;30.99;98591.75;6262697;27;98377;-66
2022/05/27 08:13:46;;;;;;;;;2.20;1.80;;;;;26.79;30.52;98582.41;6264365;27;96516;-66
2022/05/27 08:16:51;;;;;;;;;1.00;1.00;;;;;26.95;30.79;98575.97;6264529;27;96679;-64
2022/05/27 08:19:54;;;;;;;;;1.75;1.75;;;;;27.12;30.66;98575.84;6263182;27;97481;-65
2022/05/27 08:22:58;;;;;;;;;1.00;1.00;;;;;27.21;30.52;98578.56;6263613;27;96562;-66
2022/05/27 08:26:03;;;;;;;;;1.00;1.00;;;;;27.12;30.54;98575.06;6264260;27;96456;-67
2022/05/27 08:29:08;;;;;;;;;1.20;1.20;;;;;26.78;30.09;98547.63;6261973;27;96609;-66
2022/05/27 08:32:13;;;;;;;;;2.00;2.00;;;;;26.68;30.31;98557.13;6264063;27;97939;-65
2022/05/27 08:38:40;;;;;;;;;1.40;1.40;;;;;27.19;30.34;98558.69;6263809;27;97232;-67
2022/05/27 08:42:05;;;;;;;;;1.00;1.00;;;;;27.82;29.45;98548.31;6264286;27;97425;-68
2022/05/27 08:45:15;;;;;;;;;1.00;1.00;;;;;28.01;29.36;98560.47;6262822;27;97482;-66
2022/05/27 08:48:21;;;;;;;;;1.80;1.00;;;;;28.04;28.37;98542.38;6264042;27;96586;-66
2022/05/27 08:51:28;;;;;;;;;1.40;1.40;;;;;28.35;28.21;98550.94;6245175;27;97850;-67
2022/05/27 08:54:38;;;;;;;;;1.00;1.00;;;;;28.54;27.87;98546.81;6262533;27;96468;-66
2022/05/27 09:01:02;;;;;;;;;1.00;1.00;;;;;28.30;27.26;98556.72;6277378;27;96890;-66
2022/05/27 09:04:21;;;;;;;;;1.00;1.00;;;;;28.17;27.46;98538.47;6269982;27;96522;-68
2022/05/27 09:07:32;;;;;;;;;1.00;1.00;;;;;27.99;27.79;98539.84;6288652;27;96634;-68
2022/05/27 09:10:45;;;;;;;;;2.00;1.00;;;;;28.06;28.50;98531.75;6288184;27;96647;-67
2022/05/27 09:13:56;;;;;;;;;1.00;0.60;;;;;28.01;27.91;98520.88;6280374;27;97648;-67
2022/05/27 09:17:03;;;;;;;;;2.00;1.00;;;;;27.71;27.93;98525.78;6245501;27;96945;-68
2022/05/27 09:20:36;;;;;;;;;1.00;1.00;;;;;28.16;27.74;98520.22;6228048;27;99422;-68
2022/05/27 09:24:01;;;;;;;;;1.00;1.00;;;;;28.30;27.63;98514.34;6267050;27;97581;-67
2022/05/27 09:27:09;;;;;;;;;1.40;1.00;;;;;28.43;27.33;98525.09;6270120;27;97795;-66
2022/05/27 09:30:16;;;;;;;;;1.00;1.00;;;;;29.15;27.33;98500.31;6269881;27;97493;-66
2022/05/27 09:33:23;;;;;;;;;1.00;1.00;;;;;28.41;26.66;98469.16;6260877;27;96607;-68
2022/05/27 09:36:34;;;;;;;;;1.00;1.00;;;;;28.94;27.11;98500.50;6262081;27;98054;-67
2022/05/27 09:39:40;;;;;;;;;1.00;1.00;;;;;28.56;27.50;98489.00;6282655;27;96511;-67
2022/05/27 09:42:51;;;;;;;;;1.00;1.00;;;;;29.25;27.34;98477.59;6269026;27;96717;-65
2022/05/27 09:45:57;;;;;;;;;1.25;1.25;;;;;29.07;26.84;98491.00;6270119;27;96247;-65
2022/05/27 09:49:01;;;;;;;;;0.60;0.00;;;;;29.48;26.78;98478.66;6288243;27;97456;-67
2022/05/27 09:52:07;;;;;;;;;1.00;1.00;;;;;29.86;26.17;98472.50;6287496;27;97145;-66
2022/05/27 09:55:23;;;;;;;;;1.00;1.00;;;;;30.22;26.13;98477.00;6287944;27;96549;-66
2022/05/27 09:58:28;;;;;;;;;1.00;1.00;;;;;30.41;26.09;98474.25;6287716;27;97003;-66
2022/05/27 10:01:32;;;;;;;;;2.00;2.00;;;;;30.51;25.19;98465.38;6268523;27;99604;-67
2022/05/27 10:04:36;;;;;;;;;1.00;1.00;;;;;30.48;25.65;98455.00;6268608;27;99508;-66
2022/05/27 10:07:44;;;;;;;;;1.60;1.00;;;;;30.27;26.06;98467.56;6287871;27;97045;-67
2022/05/27 10:10:47;;;;;;;;;1.00;1.00;;;;;29.90;25.88;98454.00;6288006;27;96512;-67
2022/05/27 10:14:10;;;;;;;;;2.00;1.00;;;;;29.55;26.43;98441.94;6287847;27;96946;-65
2022/05/27 10:17:27;;;;;;;;;1.00;1.00;;;;;29.75;26.36;98445.63;6288058;27;96816;-66
2022/05/27 10:20:36;;;;;;;;;1.00;1.00;;;;;29.38;26.81;98439.50;6287351;27;96593;-67
2022/05/27 10:23:43;;;;;;;;;2.00;1.00;;;;;28.87;27.56;98444.00;6251863;27;97795;-66
2022/05/27 10:27:08;;;;;;;;;1.75;1.00;;;;;28.70;28.77;98417.31;6291499;27;96636;-67
2022/05/27 10:30:23;;;;;;;;;1.00;1.00;;;;;28.57;27.57;98418.53;6271071;27;96407;-67
2022/05/27 10:33:39;;;;;;;;;1.00;1.00;;;;;27.92;28.78;98398.28;6276334;27;97465;-67
2022/05/27 10:36:55;;;;;;;;;1.00;1.00;;;;;27.78;28.93;98418.03;6291797;27;97560;-66
2022/05/27 10:40:18;;;;;;;;;1.00;1.00;;;;;27.93;28.59;98416.53;6273059;27;100133;-67
2022/05/27 10:43:42;;;;;;;;;1.00;1.00;;;;;27.73;29.22;98418.25;6290809;27;96756;-66
2022/05/27 10:46:52;;;;;;;;;2.00;1.00;;;;;27.84;28.33;98399.22;6287850;27;96610;-66
2022/05/27 10:50:13;;;;;;;;;1.75;1.00;;;;;27.98;28.65;98407.97;6256071;27;98688;-68
2022/05/27 10:53:44;;;;;;;;;2.00;2.00;;;;;28.37;28.44;98400.91;6290868;27;96448;-65
2022/05/27 11:04:12;;;;;;;;;1.00;1.00;;;;;27.83;29.21;98386.50;6289838;27;96648;-65
2022/05/27 11:07:27;;;;;;;;;1.00;1.00;;;;;27.85;29.26;98382.25;6272682;27;98288;-66
2022/05/27 11:10:51;;;;;;;;;2.00;2.00;;;;;27.70;29.37;98382.13;6271307;27;99725;-67
2022/05/27 11:17:35;;;;;;;;;2.00;2.00;;;;;27.34;30.58;98366.25;6290625;27;96572;-65
2022/05/27 11:21:09;;;;;;;;;3.00;2.75;;;;;27.27;30.55;98368.81;6271393;27;97237;-66
2022/05/27 11:24:33;;;;;;;;;2.00;2.00;;;;;27.03;30.49;98367.59;6289494;27;97390;-66
2022/05/27 11:27:52;;;;;;;;;2.00;2.00;;;;;26.91;30.96;98366.75;6271699;27;99460;-66
2022/05/27 11:31:08;;;;;;;;;1.00;1.00;;;;;26.91;31.13;98358.47;6290607;27;97351;-67
2022/05/27 11:34:25;;;;;;;;;2.00;1.00;;;;;26.92;31.06;98351.78;6289852;27;97269;-65
2022/05/27 11:37:43;;;;;;;;;2.00;2.00;;;;;26.82;31.41;98353.00;6289522;27;97480;-66
2022/05/27 11:40:55;;;;;;;;;1.00;1.00;;;;;26.51;31.60;98341.56;6290679;27;97489;-66
2022/05/27 11:44:12;;;;;;;;;2.40;1.40;;;;;26.55;31.91;98346.09;6272172;27;98230;-67
2022/05/27 11:47:45;;;;;;;;;3.00;2.00;;;;;26.64;32.00;98346.81;6290357;27;97455;-67
2022/05/27 11:51:18;;;;;;;;;1.00;1.00;;;;;26.45;32.01;98342.94;6289269;27;96696;-66
2022/05/27 11:54:35;;;;;;;;;2.00;1.00;;;;;26.32;32.14;98353.13;6251715;27;96868;-66
2022/05/27 11:57:56;;;;;;;;;1.00;1.00;;;;;26.29;32.66;98329.72;6283820;27;97453;-64
2022/05/27 12:01:07;;;;;;;;;2.00;2.00;;;;;26.29;32.28;98332.47;6270312;27;97783;-66
2022/05/27 12:04:24;;;;;;;;;1.00;1.00;;;;;26.35;32.47;98324.00;6271456;27;96654;-66
2022/05/27 12:07:35;;;;;;;;;1.00;1.00;;;;;26.38;32.65;98334.38;6290078;27;96864;-66
2022/05/27 12:10:46;;;;;;;;;1.00;1.00;;;;;26.35;32.31;98332.28;6271185;27;97197;-66
2022/05/27 12:13:54;;;;;;;;;12.20;11.20;;;;;26.23;32.83;98316.47;6277446;27;96725;-67
2022/05/27 12:17:00;;;;;;;;;2.00;2.00;;;;;26.56;32.41;98333.06;6268858;27;96716;-66
2022/05/27 12:20:08;;;;;;;;;36.80;31.20;;;;;26.69;32.45;98327.25;6274071;27;97117;-66
2022/05/27 12:23:13;;;;;;;;;2.00;2.00;;;;;26.69;32.25;98318.94;6260477;27;97465;-64
2022/05/27 12:26:21;;;;;;;;;2.00;2.00;;;;;26.86;31.93;98311.63;6270760;27;97298;-66
2022/05/27 12:29:27;;;;;;;;;1.00;1.00;;;;;26.73;31.70;98328.16;6271285;27;97440;-68
2022/05/27 12:32:31;;;;;;;;;1.80;1.80;;;;;27.18;31.10;98330.16;6270257;27;96632;-64
2022/05/27 12:35:49;;;;;;;;;1.50;1.00;;;;;27.10;31.19;98337.41;6288458;27;96911;-66
2022/05/27 12:38:54;;;;;;;;;1.00;1.00;;;;;26.70;31.58;98322.53;6251805;27;96626;-67
2022/05/27 12:42:10;;;;;;;;;1.00;1.00;;;;;26.81;31.56;98325.66;6287607;27;96642;-66
2022/05/27 12:45:23;;;;;;;;;2.00;1.20;;;;;26.86;32.29;98333.75;6285692;27;97475;-64
2022/05/27 12:48:31;;;;;;;;;1.00;1.00;;;;;26.61;32.39;98347.50;6268491;27;96718;-65
2022/05/27 12:51:40;;;;;;;;;1.75;1.75;;;;;26.53;33.05;98336.53;6268064;27;97889;-65
2022/05/27 12:55:06;;;;;;;;;1.00;1.00;;;;;26.61;32.99;98330.09;6288000;27;97510;-65
2022/05/27 13:01:32;;;;;;;;;1.00;1.00;;;;;26.50;33.63;98351.00;6284605;27;98109;-66
2022/05/27 13:04:47;;;;;;;;;2.00;2.00;;;;;26.63;34.16;98361.78;6269255;27;96488;-66
2022/05/27 13:08:11;;;;;;;;;3.00;3.00;;;;;26.73;37.51;98391.78;6269584;27;97512;-65
2022/05/27 13:11:16;;;;;;;;;2.40;2.00;;;;;26.46;37.72;98348.13;6263367;27;97389;-67
2022/05/27 13:14:25;;;;;;;;;3.00;3.00;;;;;26.52;38.24;98437.19;6275089;27;96788;-66
2022/05/27 13:17:35;;;;;;;;;2.00;2.00;;;;;26.10;37.63;98428.81;6287456;27;96445;-66
2022/05/27 13:20:57;;;;;;;;;2.00;2.00;;;;;25.43;38.00;98456.38;6287595;27;96311;-66
2022/05/27 13:24:06;;;;;;;;;2.00;2.00;;;;;24.79;39.14;98472.84;6267472;27;96871;-66
2022/05/27 13:27:26;;;;;;;;;1.00;1.00;;;;;23.89;40.85;98490.16;6287692;27;96524;-67
2022/05/27 13:31:05;;;;;;;;;1.00;1.00;;;;;22.95;42.31;98546.19;6282071;27;98115;-67
2022/05/27 13:34:15;;;;;;;;;1.00;1.00;;;;;22.14;43.37;98544.38;6158883;28;98522;-65
2022/05/27 13:37:28;;;;;;;;;11.50;9.50;;;;;21.44;44.78;98550.03;6172907;28;97376;-67
2022/05/27 13:40:35;;;;;;;;;2.00;2.00;;;;;21.16;45.72;98555.41;6151079;28;97082;-64
2022/05/27 13:43:41;;;;;;;;;1.00;1.00;;;;;20.84;46.82;98562.72;6159920;28;97459;-66
2022/05/27 13:46:48;;;;;;;;;9.40;9.00;;;;;20.54;48.09;98548.34;6159999;28;96605;-65
2022/05/27 13:49:51;;;;;;;;;2.00;2.00;;;;;20.65;47.75;98587.38;6183768;28;96644;-66
2022/05/27 13:52:55;;;;;;;;;3.00;3.00;;;;;20.58;47.97;98565.00;6167134;28;97392;-66
2022/05/27 13:56:12;;;;;;;;;0.00;0.00;;;;;20.42;48.38;98560.84;6181073;28;97016;-67
2022/05/27 13:59:26;;;;;;;;;1.00;1.00;;;;;20.28;48.95;98569.72;6185725;28;97060;-66
2022/05/27 14:02:35;;;;;;;;;2.25;2.00;;;;;20.06;49.32;98585.88;6170951;28;96779;-66
2022/05/27 14:05:39;;;;;;;;;2.00;2.00;;;;;20.00;48.82;98589.75;6172657;28;97367;-67
2022/05/27 14:08:44;;;;;;;;;2.00;2.00;;;;;19.93;49.35;98605.72;6263693;27;97629;-68
2022/05/27 14:11:52;;;;;;;;;1.00;1.00;;;;;19.67;49.06;98590.66;6275221;27;97407;-68
2022/05/27 14:14:56;;;;;;;;;1.00;1.00;;;;;19.82;49.40;98612.41;6248270;27;97038;-67
2022/05/27 14:18:00;;;;;;;;;2.00;2.00;;;;;19.80;49.22;98609.13;6276728;27;97634;-68
2022/05/27 14:24:31;;;;;;;;;2.00;2.00;;;;;19.81;49.96;98597.91;6273523;27;96757;-67
2022/05/27 14:27:42;;;;;;;;;2.00;2.00;;;;;19.76;49.61;98621.75;6292083;27;96381;-66
2022/05/27 14:30:52;;;;;;;;;3.00;2.40;;;;;19.75;49.80;98595.50;6273649;27;96517;-66
2022/05/27 14:34:00;;;;;;;;;5.40;5.00;;;;;19.70;49.18;98595.53;6260082;27;96675;-66
2022/05/27 14:37:20;;;;;;;;;4.60;3.60;;;;;19.69;50.07;98596.66;6264742;27;96716;-65
2022/05/27 14:40:30;;;;;;;;;0.75;0.75;;;;;19.63;50.06;98609.56;6266611;27;97425;-65
2022/05/27 14:43:40;;;;;;;;;2.00;2.00;;;;;19.35;49.73;98638.44;6247444;27;97966;-67
2022/05/27 14:47:01;;;;;;;;;2.00;2.00;;;;;19.31;50.00;98640.13;6265041;27;97532;-65
2022/05/27 14:50:18;;;;;;;;;1.75;1.50;;;;;19.24;50.23;98616.97;6266317;27;96427;-64
2022/05/27 14:53:22;;;;;;;;;2.00;2.00;;;;;19.24;49.84;98628.72;6248076;27;97261;-65
2022/05/27 14:56:28;;;;;;;;;1.25;1.25;;;;;19.16;50.81;98629.28;6266659;27;98782;-65
2022/05/27 14:59:35;;;;;;;;;3.00;2.40;;;;;18.99;51.55;98629.69;6291358;27;96853;-66
2022/05/27 15:02:50;;;;;;;;;2.00;1.00;;;;;18.85;52.04;98631.41;6291421;27;97642;-66
2022/05/27 15:05:53;;;;;;;;;2.00;2.00;;;;;18.62;52.86;98636.72;6291479;27;97482;-66
2022/05/27 15:09:08;;;;;;;;;1.80;1.80;;;;;18.39;53.27;98649.88;6291156;27;97456;-66
2022/05/27 15:12:17;;;;;;;;;1.00;1.00;;;;;18.30;53.59;98642.53;6291116;27;96608;-66
2022/05/27 15:15:31;;;;;;;;;2.00;2.00;;;;;18.29;53.89;98655.34;6291268;27;97096;-66
2022/05/27 15:18:36;;;;;;;;;4.00;3.00;;;;;18.15;53.90;98643.38;6272811;27;97448;-66
2022/05/27 15:21:43;;;;;;;;;1.40;1.00;;;;;18.21;54.04;98638.75;6291068;27;96773;-65
2022/05/27 15:24:54;;;;;;;;;2.00;2.00;;;;;18.11;54.00;98637.66;6271827;27;98373;-64